Time;durP1;ratioP1;P1;durP2;ratioP2;P2;SDS_P1;SDS_P2;PMS_P1;PMS_P2;Temp;Humidity;BMP_temperature;BMP_pressure;BME280_temperature;BME280_humidity;BME280_pressure;Samples;Min_cycle;Max_cycle;Signal;HPM_P1;HPM_P2
2022/08/18 00:00:13;;;;;;;;;;;19.20;99.90;19.30;99247.00;;;;338847;28;86355;-86
2022/08/18 00:00:31;;;;;;;;;;;19.20;99.90;19.20;99245.00;;;;340290;28;83367;-87
2022/08/18 00:00:43;;;;;;;;;;;19.10;99.90;19.10;99247.00;;;;340234;28;86632;-88
2022/08/18 00:00:57;;;;;;;;;;;19.10;99.90;19.10;99251.00;;;;339071;28;83431;-87
2022/08/18 00:01:11;;;;;;;;;;;19.10;99.90;19.10;99244.00;;;;340180;28;87150;-87
2022/08/18 00:01:25;;;;;;;;;;;19.10;99.90;19.20;99253.00;;;;340268;28;83455;-87
2022/08/18 00:01:42;;;;;;;;;;;19.10;99.90;19.20;99249.00;;;;338878;28;86679;-87
2022/08/18 00:02:03;;;;;;;;;;;19.10;99.90;19.20;99238.00;;;;340253;28;83486;-87
2022/08/18 00:02:20;;;;;;;;;;;19.10;99.90;19.20;99247.00;;;;345763;28;88394;-86
2022/08/18 00:02:41;;;;;;;;;;;19.10;99.90;19.10;99249.00;;;;340389;28;82292;-87
2022/08/18 00:03:11;;;;;;;;;;;19.10;99.90;19.10;99244.00;;;;338825;28;88425;-86
2022/08/18 00:03:44;;;;;;;;;;;19.00;99.90;19.10;99247.00;;;;338874;28;83244;-86
2022/08/18 00:04:09;;;;;;;;;;;19.10;99.90;19.10;99247.00;;;;337443;28;87718;-87
2022/08/18 00:04:41;;;;;;;;;;;19.10;99.90;19.10;99250.00;;;;340358;28;82490;-87
2022/08/18 00:05:00;;;;;;;;;;;19.10;99.90;19.10;99244.00;;;;338653;28;87274;-86
2022/08/18 00:05:12;;;;;;;;;;;19.10;99.90;19.00;99244.00;;;;337391;28;83974;-86
2022/08/18 00:05:25;;;;;;;;;;;19.00;99.90;19.10;99237.00;;;;338837;28;86134;-87
2022/08/18 00:05:37;;;;;;;;;;;19.00;99.90;19.10;99246.00;;;;339091;28;83271;-88
2022/08/18 00:05:50;;;;;;;;;;;19.00;99.90;19.10;99243.00;;;;338897;28;84225;-86
2022/08/18 00:06:01;;;;;;;;;;;19.00;99.90;19.10;99242.00;;;;339098;28;82396;-87
2022/08/18 00:06:15;;;;;;;;;;;19.00;99.90;19.10;99244.00;;;;341571;28;87143;-87
2022/08/18 00:06:27;;;;;;;;;;;19.00;99.90;19.20;99245.00;;;;338875;28;83379;-87
2022/08/18 00:06:40;;;;;;;;;;;19.00;99.90;19.20;99251.00;;;;338960;28;85366;-87
2022/08/18 00:06:52;;;;;;;;;;;19.00;99.90;19.20;99239.00;;;;339024;28;83354;-87
2022/08/18 00:07:05;;;;;;;;;;;19.00;99.90;19.20;99242.00;;;;340211;28;85968;-87
2022/08/18 00:07:19;;;;;;;;;;;19.00;99.90;19.10;99231.00;;;;341779;28;83325;-87
2022/08/18 00:07:32;;;;;;;;;;;19.00;99.90;19.20;99234.00;;;;337441;28;87889;-87
2022/08/18 00:07:43;;;;;;;;;;;19.00;99.90;19.20;99234.00;;;;337640;28;84034;-88
2022/08/18 00:08:00;;;;;;;;;;;19.00;99.90;19.20;99242.00;;;;338779;28;88277;-87
2022/08/18 00:08:12;;;;;;;;;;;19.10;99.90;19.10;99233.00;;;;345758;28;83376;-87
2022/08/18 00:08:23;;;;;;;;;;;19.00;99.90;19.20;99233.00;;;;345772;28;87401;-87
2022/08/18 00:08:35;;;;;;;;;;;19.00;99.90;19.10;99242.00;;;;347356;28;82510;-87
2022/08/18 00:08:49;;;;;;;;;;;19.00;99.90;19.20;99227.00;;;;342960;28;86119;-87
2022/08/18 00:09:05;;;;;;;;;;;19.00;99.90;19.20;99237.00;;;;341618;28;83385;-86
2022/08/18 00:09:17;;;;;;;;;;;19.00;99.90;19.10;99236.00;;;;341517;28;87671;-86
2022/08/18 00:09:29;;;;;;;;;;;19.00;99.90;19.20;99234.00;;;;337696;28;83213;-87
2022/08/18 00:09:43;;;;;;;;;;;19.00;99.90;19.30;99239.00;;;;344571;28;84560;-87
2022/08/18 00:09:57;;;;;;;;;;;19.10;99.90;19.20;99230.00;;;;340046;28;83533;-87
2022/08/18 00:10:09;;;;;;;;;;;19.10;99.90;19.30;99240.00;;;;340092;28;87509;-87
2022/08/18 00:10:29;;;;;;;;;;;19.10;99.90;19.20;99240.00;;;;338908;28;82828;-87
2022/08/18 00:10:41;;;;;;;;;;;19.10;99.90;19.30;99241.00;;;;341497;28;86336;-87
2022/08/18 00:10:53;;;;;;;;;;;19.10;99.90;19.30;99244.00;;;;341411;28;83494;-86
2022/08/18 00:11:05;;;;;;;;;;;19.10;99.90;19.20;99238.00;;;;338921;28;87891;-86
2022/08/18 00:11:16;;;;;;;;;;;19.10;99.90;19.20;99242.00;;;;338730;28;83303;-87
2022/08/18 00:11:29;;;;;;;;;;;19.10;99.90;19.20;99237.00;;;;338964;28;85059;-87
2022/08/18 00:11:52;;;;;;;;;;;19.10;99.90;19.20;99239.00;;;;340380;28;83318;-87
2022/08/18 00:12:11;;;;;;;;;;;19.10;99.90;19.20;99238.00;;;;341481;28;88155;-87
2022/08/18 00:12:33;;;;;;;;;;;19.10;99.90;19.20;99245.00;;;;340185;28;83306;-86
2022/08/18 00:12:44;;;;;;;;;;;19.10;99.90;19.20;99242.00;;;;340336;28;85395;-87
2022/08/18 00:12:56;;;;;;;;;;;19.10;99.90;19.20;99241.00;;;;341611;28;83392;-87
2022/08/18 00:13:12;;;;;;;;;;;19.10;99.90;19.20;99241.00;;;;340185;28;87504;-87
2022/08/18 00:13:23;;;;;;;;;;;19.10;99.90;19.10;99237.00;;;;342980;28;83324;-86
2022/08/18 00:13:35;;;;;;;;;;;19.10;99.90;19.20;99237.00;;;;340171;28;86654;-87
2022/08/18 00:13:47;;;;;;;;;;;19.10;99.90;19.20;99233.00;;;;338891;28;83247;-87
2022/08/18 00:13:58;;;;;;;;;;;19.10;99.90;19.20;99232.00;;;;341470;28;87552;-87
2022/08/18 00:14:15;;;;;;;;;;;19.10;99.90;19.20;99235.00;;;;341666;28;83369;-87
2022/08/18 00:14:33;;;;;;;;;;;19.10;99.90;19.30;99236.00;;;;342738;28;87632;-87
2022/08/18 00:14:45;;;;;;;;;;;19.10;99.90;19.20;99220.00;;;;342882;28;83306;-87
2022/08/18 00:15:00;;;;;;;;;;;19.10;99.90;19.10;99230.00;;;;341460;28;85917;-87
2022/08/18 00:15:13;;;;;;;;;;;19.10;99.90;19.10;99232.00;;;;341728;28;83287;-87
2022/08/18 00:15:25;;;;;;;;;;;19.10;99.90;19.20;99232.00;;;;340242;28;87600;-87
2022/08/18 00:15:37;;;;;;;;;;;19.10;99.90;19.20;99225.00;;;;341730;28;82421;-86
2022/08/18 00:15:59;;;;;;;;;;;19.10;99.90;19.20;99232.00;;;;341576;28;84511;-87
2022/08/18 00:16:11;;;;;;;;;;;19.10;99.90;19.30;99228.00;;;;340271;28;83321;-87
2022/08/18 00:16:23;;;;;;;;;;;19.10;99.90;19.30;99225.00;;;;342836;28;86450;-87
2022/08/18 00:16:35;;;;;;;;;;;19.10;99.90;19.40;99216.00;;;;340239;28;83393;-87
2022/08/18 00:16:47;;;;;;;;;;;19.10;99.90;19.20;99219.00;;;;342934;28;87621;-87
2022/08/18 00:16:59;;;;;;;;;;;19.10;99.90;19.20;99223.00;;;;341543;28;82471;-87
2022/08/18 00:17:11;;;;;;;;;;;19.10;99.90;19.20;99220.00;;;;338961;28;83995;-87
2022/08/18 00:17:23;;;;;;;;;;;19.10;99.90;19.20;99212.00;;;;340349;28;83371;-88
2022/08/18 00:17:35;;;;;;;;;;;19.10;99.90;19.20;99220.00;;;;338809;28;85952;-87
2022/08/18 00:17:46;;;;;;;;;;;19.10;99.90;19.30;99221.00;;;;340241;28;83531;-87
2022/08/18 00:17:58;;;;;;;;;;;19.10;99.90;19.30;99208.00;;;;340157;28;86283;-87
2022/08/18 00:18:10;;;;;;;;;;;19.10;99.90;19.20;99222.00;;;;348662;27;82342;-87
2022/08/18 00:18:22;;;;;;;;;;;19.10;99.90;19.20;99211.00;;;;348529;27;87580;-86
2022/08/18 00:18:33;;;;;;;;;;;19.10;99.90;19.20;99217.00;;;;343064;28;83203;-87
2022/08/18 00:18:45;;;;;;;;;;;19.10;99.90;19.10;99217.00;;;;340151;28;87891;-86
2022/08/18 00:18:57;;;;;;;;;;;19.10;99.90;19.10;99221.00;;;;340235;28;83263;-87
2022/08/18 00:19:08;;;;;;;;;;;19.10;99.90;19.10;99218.00;;;;340182;28;87391;-87
2022/08/18 00:19:21;;;;;;;;;;;19.10;99.90;19.10;99216.00;;;;338898;28;83461;-86
2022/08/18 00:19:53;;;;;;;;;;;19.10;99.90;19.10;99219.00;;;;337519;28;87315;-87
2022/08/18 00:20:07;;;;;;;;;;;19.00;99.90;19.10;99212.00;;;;338920;28;83343;-87
2022/08/18 00:20:21;;;;;;;;;;;19.00;99.90;19.10;99212.00;;;;343021;28;86361;-87
2022/08/18 00:20:33;;;;;;;;;;;19.00;99.90;19.20;99219.00;;;;343150;28;83985;-86
2022/08/18 00:20:44;;;;;;;;;;;19.00;99.90;19.10;99218.00;;;;344309;28;87079;-86
2022/08/18 00:20:56;;;;;;;;;;;19.00;99.90;19.10;99221.00;;;;339099;28;83308;-87
2022/08/18 00:21:08;;;;;;;;;;;19.00;99.90;19.10;99220.00;;;;340132;28;87162;-87
2022/08/18 00:21:20;;;;;;;;;;;19.00;99.90;19.10;99217.00;;;;338774;28;83388;-87
2022/08/18 00:21:32;;;;;;;;;;;19.00;99.90;19.10;99210.00;;;;337500;28;88325;-87
2022/08/18 00:21:44;;;;;;;;;;;19.00;99.90;19.10;99208.00;;;;338860;28;83419;-87
2022/08/18 00:21:57;;;;;;;;;;;19.00;99.90;19.10;99220.00;;;;338867;28;83853;-86
2022/08/18 00:22:09;;;;;;;;;;;19.00;99.90;19.00;99216.00;;;;339022;28;83157;-88
2022/08/18 00:22:26;;;;;;;;;;;19.00;99.90;19.00;99225.00;;;;340190;28;86712;-87
2022/08/18 00:22:38;;;;;;;;;;;19.00;99.90;19.10;99221.00;;;;337714;28;83733;-87
2022/08/18 00:22:55;;;;;;;;;;;19.00;99.90;19.10;99220.00;;;;347828;27;86413;-86
2022/08/18 00:23:07;;;;;;;;;;;19.00;99.90;19.10;99220.00;;;;345923;28;83420;-87
2022/08/18 00:23:19;;;;;;;;;;;19.00;99.90;19.10;99220.00;;;;339008;28;84806;-87
2022/08/18 00:23:31;;;;;;;;;;;19.00;99.90;19.20;99219.00;;;;341488;28;82437;-87
2022/08/18 00:23:43;;;;;;;;;;;19.00;99.90;19.20;99215.00;;;;340268;28;85256;-87
2022/08/18 00:23:55;;;;;;;;;;;19.00;99.90;19.20;99224.00;;;;337597;28;83321;-87
2022/08/18 00:24:07;;;;;;;;;;;19.00;99.90;19.20;99218.00;;;;340142;28;87977;-87
2022/08/18 00:24:18;;;;;;;;;;;19.00;99.90;19.20;99221.00;;;;339614;28;83312;-88
2022/08/18 00:24:30;;;;;;;;;;;19.00;99.90;19.10;99219.00;;;;340112;28;87975;-87
2022/08/18 00:24:47;;;;;;;;;;;19.00;99.90;19.30;99213.00;;;;341670;28;82395;-87
2022/08/18 00:25:00;;;;;;;;;;;19.00;99.90;19.20;99211.00;;;;340166;28;84305;-87
2022/08/18 00:25:13;;;;;;;;;;;19.00;99.90;19.10;99214.00;;;;338957;28;83306;-87
2022/08/18 00:25:25;;;;;;;;;;;19.00;99.90;19.10;99221.00;;;;341499;28;86678;-87
2022/08/18 00:25:36;;;;;;;;;;;19.00;99.90;19.10;99216.00;;;;341706;28;83337;-88
2022/08/18 00:25:48;;;;;;;;;;;19.00;99.90;19.10;99211.00;;;;338788;28;87908;-87
2022/08/18 00:26:02;;;;;;;;;;;19.00;99.90;19.10;99216.00;;;;340265;28;82508;-88
2022/08/18 00:26:14;;;;;;;;;;;19.00;99.90;19.10;99217.00;;;;341444;28;87642;-87
2022/08/18 00:26:26;;;;;;;;;;;19.00;99.90;19.10;99212.00;;;;343056;28;82344;-87
2022/08/18 00:26:38;;;;;;;;;;;19.00;99.90;19.20;99209.00;;;;341580;28;83591;-87
2022/08/18 00:26:51;;;;;;;;;;;19.00;99.90;19.10;99206.00;;;;344183;28;82452;-87
2022/08/18 00:27:04;;;;;;;;;;;19.10;99.90;19.10;99217.00;;;;341346;28;87198;-87
2022/08/18 00:27:23;;;;;;;;;;;19.00;99.90;19.10;99214.00;;;;341702;28;83340;-87
2022/08/18 00:27:40;;;;;;;;;;;19.00;99.90;19.10;99211.00;;;;340159;28;88131;-87
2022/08/18 00:27:52;;;;;;;;;;;19.00;99.90;19.10;99214.00;;;;342980;28;82353;-87
2022/08/18 00:28:04;;;;;;;;;;;19.00;99.90;19.10;99206.00;;;;341444;28;87839;-87
2022/08/18 00:28:15;;;;;;;;;;;19.00;99.90;19.10;99218.00;;;;340308;28;83327;-87
2022/08/18 00:28:27;;;;;;;;;;;19.00;99.90;19.10;99206.00;;;;340157;28;84705;-87
2022/08/18 00:28:39;;;;;;;;;;;19.00;99.90;19.10;99210.00;;;;340366;28;83368;-87
2022/08/18 00:28:51;;;;;;;;;;;19.00;99.90;19.10;99211.00;;;;340217;28;86757;-87
2022/08/18 00:29:02;;;;;;;;;;;19.10;99.90;19.10;99211.00;;;;342906;28;83266;-87
2022/08/18 00:29:14;;;;;;;;;;;19.10;99.90;19.10;99206.00;;;;347284;28;86160;-87
2022/08/18 00:29:26;;;;;;;;;;;19.00;99.90;19.20;99204.00;;;;347418;28;82471;-87
2022/08/18 00:29:38;;;;;;;;;;;19.00;99.90;19.10;99210.00;;;;341466;28;86153;-87
2022/08/18 00:29:50;;;;;;;;;;;19.00;99.90;19.20;99203.00;;;;340304;28;83093;-87
2022/08/18 00:30:04;;;;;;;;;;;19.00;99.90;19.10;99197.00;;;;340250;28;85219;-87
2022/08/18 00:30:17;;;;;;;;;;;19.00;99.90;19.10;99211.00;;;;340071;28;83511;-87
2022/08/18 00:30:29;;;;;;;;;;;19.00;99.90;19.10;99201.00;;;;340229;28;86661;-87
2022/08/18 00:30:41;;;;;;;;;;;19.00;99.90;19.10;99203.00;;;;340326;28;83284;-87
2022/08/18 00:30:52;;;;;;;;;;;19.00;99.90;19.10;99200.00;;;;345654;28;88338;-87
2022/08/18 00:31:05;;;;;;;;;;;19.00;99.90;19.10;99209.00;;;;345826;28;83382;-86
2022/08/18 00:31:16;;;;;;;;;;;19.00;99.90;19.10;99201.00;;;;338702;28;86301;-87
2022/08/18 00:31:28;;;;;;;;;;;19.00;99.90;19.10;99197.00;;;;340347;28;83170;-87
2022/08/18 00:31:40;;;;;;;;;;;19.00;99.90;19.10;99203.00;;;;342817;28;87583;-87
2022/08/18 00:31:52;;;;;;;;;;;19.00;99.90;19.10;99202.00;;;;340222;28;83562;-87
2022/08/18 00:32:27;;;;;;;;;;;19.00;99.90;19.10;99202.00;;;;338939;28;83731;-87
2022/08/18 00:32:52;;;;;;;;;;;19.00;99.90;19.00;99197.00;;;;338952;28;83366;-88
2022/08/18 00:33:04;;;;;;;;;;;19.00;99.90;19.10;99203.00;;;;338401;28;88068;-87
2022/08/18 00:33:15;;;;;;;;;;;19.10;99.90;19.10;99197.00;;;;339035;28;83350;-87
2022/08/18 00:33:27;;;;;;;;;;;19.00;99.90;19.10;99188.00;;;;341532;28;87912;-88
2022/08/18 00:33:39;;;;;;;;;;;19.00;99.90;19.00;99200.00;;;;338873;28;83473;-87
2022/08/18 00:33:51;;;;;;;;;;;19.00;99.90;19.10;99191.00;;;;338861;28;87469;-87
2022/08/18 00:34:02;;;;;;;;;;;19.00;99.90;19.10;99195.00;;;;337606;28;83352;-88
2022/08/18 00:34:14;;;;;;;;;;;19.00;99.90;19.10;99192.00;;;;340194;28;87129;-87
2022/08/18 00:34:26;;;;;;;;;;;19.00;99.90;19.20;99192.00;;;;341504;28;83566;-87
2022/08/18 00:34:43;;;;;;;;;;;19.00;99.90;19.20;99190.00;;;;340259;28;84324;-87
2022/08/18 00:34:54;;;;;;;;;;;19.00;99.90;19.20;99187.00;;;;337700;28;83198;-87
2022/08/18 00:35:36;;;;;;;;;;;19.00;99.90;19.10;99192.00;;;;342748;28;87456;-87
2022/08/18 00:35:48;;;;;;;;;;;19.00;99.90;19.10;99187.00;;;;336230;29;83608;-87
2022/08/18 00:36:00;;;;;;;;;;;19.00;99.90;19.20;99185.00;;;;337571;28;86973;-87
2022/08/18 00:36:11;;;;;;;;;;;19.10;99.90;19.30;99185.00;;;;338250;28;83243;-87
2022/08/18 00:36:23;;;;;;;;;;;19.10;99.90;19.30;99182.00;;;;339979;28;87072;-87
2022/08/18 00:36:35;;;;;;;;;;;19.10;99.90;19.30;99185.00;;;;338858;28;83383;-88
2022/08/18 00:36:48;;;;;;;;;;;19.10;99.90;19.20;99179.00;;;;338924;28;86930;-88
2022/08/18 00:37:00;;;;;;;;;;;19.10;99.90;19.30;99185.00;;;;340343;28;82545;-88
2022/08/18 00:37:12;;;;;;;;;;;19.10;99.90;19.20;99187.00;;;;341578;28;83636;-87
2022/08/18 00:37:24;;;;;;;;;;;19.10;99.90;19.20;99182.00;;;;341655;28;83265;-87
2022/08/18 00:37:36;;;;;;;;;;;19.10;99.90;19.10;99178.00;;;;340171;28;87168;-87
2022/08/18 00:37:48;;;;;;;;;;;19.10;99.90;19.10;99184.00;;;;340293;28;82614;-87
2022/08/18 00:38:01;;;;;;;;;;;19.10;99.90;19.10;99187.00;;;;340148;28;87884;-87
2022/08/18 00:38:13;;;;;;;;;;;19.10;99.90;19.00;99189.00;;;;341537;28;83051;-87
2022/08/18 00:38:36;;;;;;;;;;;19.10;99.90;19.10;99185.00;;;;341509;28;87741;-87
2022/08/18 00:38:48;;;;;;;;;;;19.10;99.90;19.10;99183.00;;;;340370;28;82371;-87
2022/08/18 00:39:00;;;;;;;;;;;19.10;99.90;19.10;99183.00;;;;340231;28;83628;-88
2022/08/18 00:39:12;;;;;;;;;;;19.10;99.90;19.20;99181.00;;;;340150;28;82281;-87
2022/08/18 00:39:24;;;;;;;;;;;19.10;99.90;19.20;99182.00;;;;338874;28;88399;-88
2022/08/18 00:39:35;;;;;;;;;;;19.10;99.90;19.20;99181.00;;;;338950;28;83437;-87
2022/08/18 00:39:54;;;;;;;;;;;19.10;99.90;19.10;99188.00;;;;347324;28;85063;-88
2022/08/18 00:40:07;;;;;;;;;;;19.10;99.90;19.10;99183.00;;;;348761;27;83451;-87
2022/08/18 00:40:21;;;;;;;;;;;19.10;99.90;19.30;99177.00;;;;345777;28;87353;-87
2022/08/18 00:40:41;;;;;;;;;;;19.10;99.90;19.30;99179.00;;;;337658;28;82540;-88
2022/08/18 00:40:54;;;;;;;;;;;19.10;99.90;19.20;99188.00;;;;340228;28;87123;-87
2022/08/18 00:41:06;;;;;;;;;;;19.10;99.90;19.30;99177.00;;;;337610;28;83857;-88
2022/08/18 00:41:19;;;;;;;;;;;19.10;99.90;19.30;99180.00;;;;338768;28;84678;-85
2022/08/18 00:41:30;;;;;;;;;;;19.10;99.90;19.30;99177.00;;;;341542;28;83204;-87
2022/08/18 00:41:42;;;;;;;;;;;19.10;99.90;19.30;99187.00;;;;338604;28;87559;-86
2022/08/18 00:41:55;;;;;;;;;;;19.10;99.90;19.20;99184.00;;;;337565;28;83311;-87
2022/08/18 00:42:18;;;;;;;;;;;19.10;99.90;19.20;99187.00;;;;338784;28;85091;-87
2022/08/18 00:42:47;;;;;;;;;;;19.10;99.90;19.10;99180.00;;;;341625;28;83390;-87
2022/08/18 00:43:01;;;;;;;;;;;19.10;99.90;19.10;99196.00;;;;340291;28;84834;-87
2022/08/18 00:43:26;;;;;;;;;;;19.10;99.90;19.20;99180.00;;;;341604;27;82931;-87
2022/08/18 00:43:45;;;;;;;;;;;19.10;99.90;19.10;99193.00;;;;340955;28;86335;-87
2022/08/18 00:43:57;;;;;;;;;;;19.10;99.90;19.10;99188.00;;;;341873;28;83672;-88
2022/08/18 00:44:09;;;;;;;;;;;19.10;99.90;19.10;99185.00;;;;337403;28;87062;-87
2022/08/18 00:44:21;;;;;;;;;;;19.10;99.90;19.10;99181.00;;;;337754;28;83302;-87
2022/08/18 00:44:32;;;;;;;;;;;19.10;99.90;19.20;99185.00;;;;339183;28;84109;-87
2022/08/18 00:44:44;;;;;;;;;;;19.10;99.90;19.20;99182.00;;;;341852;28;83422;-87
2022/08/18 00:45:01;;;;;;;;;;;19.10;99.90;19.20;99178.00;;;;339130;28;85270;-88
2022/08/18 00:45:16;;;;;;;;;;;19.10;99.90;19.10;99183.00;;;;338993;28;83579;-88
2022/08/18 00:45:31;;;;;;;;;;;19.10;99.90;19.10;99178.00;;;;340399;28;86097;-88
2022/08/18 00:45:43;;;;;;;;;;;19.10;99.90;19.10;99181.00;;;;339158;28;82472;-87
2022/08/18 00:45:55;;;;;;;;;;;19.10;99.90;19.30;99182.00;;;;340377;28;86700;-87
2022/08/18 00:46:10;;;;;;;;;;;19.10;99.90;19.30;99181.00;;;;339134;28;83582;-87
2022/08/18 00:46:33;;;;;;;;;;;19.10;99.90;19.00;99182.00;;;;341614;28;86211;-87
2022/08/18 00:46:44;;;;;;;;;;;19.10;99.90;19.10;99184.00;;;;339223;28;83296;-87
2022/08/18 00:46:56;;;;;;;;;;;19.00;99.90;19.10;99178.00;;;;340239;28;85234;-87
2022/08/18 00:47:08;;;;;;;;;;;19.00;99.90;19.10;99177.00;;;;343077;28;83553;-87
2022/08/18 00:47:19;;;;;;;;;;;19.00;99.90;19.20;99176.00;;;;338986;28;87228;-87
2022/08/18 00:47:51;;;;;;;;;;;19.00;99.90;19.20;99179.00;;;;341829;28;83541;-88
2022/08/18 00:48:04;;;;;;;;;;;19.00;99.90;19.20;99178.00;;;;341788;28;86034;-87
2022/08/18 00:48:16;;;;;;;;;;;19.00;99.90;19.20;99178.00;;;;340518;28;83439;-87
2022/08/18 00:48:29;;;;;;;;;;;19.00;99.90;19.20;99181.00;;;;341694;28;88217;-88
2022/08/18 00:48:41;;;;;;;;;;;19.00;99.90;19.10;99178.00;;;;340463;28;83252;-87
2022/08/18 00:48:59;;;;;;;;;;;19.00;99.90;19.10;99177.00;;;;340327;28;87891;-87
2022/08/18 00:49:11;;;;;;;;;;;19.00;99.90;19.10;99172.00;;;;340509;28;82447;-87
2022/08/18 00:49:23;;;;;;;;;;;19.00;99.90;19.10;99176.00;;;;339080;28;86117;-87
2022/08/18 00:49:35;;;;;;;;;;;19.00;99.90;19.20;99177.00;;;;337848;28;83248;-88
2022/08/18 00:49:47;;;;;;;;;;;19.00;99.90;19.10;99173.00;;;;341723;28;84602;-88
2022/08/18 00:49:59;;;;;;;;;;;19.00;99.90;19.10;99173.00;;;;340591;28;82289;-88
2022/08/18 00:50:20;;;;;;;;;;;19.00;99.90;19.10;99173.00;;;;337599;28;88294;-87
2022/08/18 00:50:36;;;;;;;;;;;19.00;99.90;19.10;99167.00;;;;339246;28;83410;-87
2022/08/18 00:50:54;;;;;;;;;;;19.00;99.90;19.10;99168.00;;;;339092;28;89131;-87
2022/08/18 00:51:11;;;;;;;;;;;19.00;99.90;19.10;99168.00;;;;339130;28;83309;-88
2022/08/18 00:51:27;;;;;;;;;;;19.00;99.90;19.20;99165.00;;;;339104;28;86271;-87
2022/08/18 00:51:42;;;;;;;;;;;19.00;99.90;19.30;99159.00;;;;338154;28;83289;-87
2022/08/18 00:51:54;;;;;;;;;;;19.00;99.90;19.30;99155.00;;;;339888;28;86812;-88
2022/08/18 00:52:05;;;;;;;;;;;19.00;99.90;19.20;99155.00;;;;338950;28;82312;-87
2022/08/18 00:52:18;;;;;;;;;;;19.00;99.90;19.10;99167.00;;;;338881;28;86727;-87
2022/08/18 00:52:29;;;;;;;;;;;19.10;99.90;19.10;99163.00;;;;339113;28;82435;-87
2022/08/18 00:52:44;;;;;;;;;;;19.00;99.90;19.20;99162.00;;;;340330;28;87017;-87
2022/08/18 00:52:58;;;;;;;;;;;19.10;99.90;19.30;99158.00;;;;340475;28;83495;-87
2022/08/18 00:53:44;;;;;;;;;;;19.10;99.90;19.30;99165.00;;;;339078;28;87139;-87
2022/08/18 00:53:59;;;;;;;;;;;19.10;99.90;19.40;99166.00;;;;344761;28;83497;-87
2022/08/18 00:54:14;;;;;;;;;;;19.10;99.90;19.40;99163.00;;;;346044;28;84948;-87
2022/08/18 00:54:28;;;;;;;;;;;19.20;99.90;19.40;99153.00;;;;344531;28;83615;-87
2022/08/18 00:54:40;;;;;;;;;;;19.20;99.90;19.40;99150.00;;;;343281;28;83452;-88
2022/08/18 00:54:52;;;;;;;;;;;19.20;99.90;19.40;99154.00;;;;344800;28;83329;-88
2022/08/18 00:55:04;;;;;;;;;;;19.20;99.90;19.40;99147.00;;;;343158;28;87428;-88
2022/08/18 00:55:16;;;;;;;;;;;19.20;99.90;19.40;99155.00;;;;344625;28;83345;-87
2022/08/18 00:55:28;;;;;;;;;;;19.20;99.90;19.40;99157.00;;;;346001;28;87864;-87
2022/08/18 00:55:40;;;;;;;;;;;19.20;99.90;19.40;99147.00;;;;346135;28;82503;-87
2022/08/18 00:56:09;;;;;;;;;;;19.30;99.90;19.40;99150.00;;;;346133;28;86326;-88
2022/08/18 00:56:25;;;;;;;;;;;19.20;99.90;19.40;99146.00;;;;344614;28;83271;-87
2022/08/18 00:56:41;;;;;;;;;;;19.20;99.90;19.40;99149.00;;;;345957;28;85470;-87
2022/08/18 00:56:55;;;;;;;;;;;19.20;99.90;19.40;99152.00;;;;344603;28;83536;-88
2022/08/18 00:57:07;;;;;;;;;;;19.20;99.90;19.30;99147.00;;;;344291;28;87842;-87
2022/08/18 00:57:20;;;;;;;;;;;19.20;99.90;19.40;99145.00;;;;344613;28;82420;-87
2022/08/18 00:57:32;;;;;;;;;;;19.20;99.90;19.40;99142.00;;;;344646;28;86354;-87
2022/08/18 00:57:44;;;;;;;;;;;19.20;99.90;19.40;99154.00;;;;343245;28;83447;-87
2022/08/18 00:58:01;;;;;;;;;;;19.20;99.90;19.30;99149.00;;;;344689;28;86234;-88
2022/08/18 00:58:17;;;;;;;;;;;19.20;99.90;19.30;99151.00;;;;347529;28;82530;-87
2022/08/18 00:58:35;;;;;;;;;;;19.20;99.90;19.30;99150.00;;;;343332;28;86579;-87
2022/08/18 00:58:56;;;;;;;;;;;19.20;99.90;19.40;99151.00;;;;343370;28;83232;-88
2022/08/18 00:59:25;;;;;;;;;;;19.20;99.90;19.30;99153.00;;;;340177;28;91758;-87
2022/08/18 00:59:47;;;;;;;;;;;19.20;99.90;19.30;99157.00;;;;342021;28;83436;-88
2022/08/18 01:00:22;;;;;;;;;;;19.20;99.90;19.20;99147.00;;;;344661;28;89114;-87
2022/08/18 01:00:33;;;;;;;;;;;19.20;99.90;19.10;99153.00;;;;343281;28;84135;-87
2022/08/18 01:00:45;;;;;;;;;;;19.20;99.90;19.30;99150.00;;;;342851;28;93090;-88
2022/08/18 01:00:57;;;;;;;;;;;19.20;99.90;19.20;99152.00;;;;343396;28;83501;-87
2022/08/18 01:01:10;;;;;;;;;;;19.20;99.90;19.30;99149.00;;;;342750;28;89315;-87
2022/08/18 01:01:22;;;;;;;;;;;19.10;99.90;19.30;99149.00;;;;343402;28;82205;-87
2022/08/18 01:01:34;;;;;;;;;;;19.20;99.90;19.30;99158.00;;;;340233;28;91604;-88
2022/08/18 01:01:47;;;;;;;;;;;19.10;99.90;19.30;99149.00;;;;341884;28;83739;-87
2022/08/18 01:02:01;;;;;;;;;;;19.10;99.90;19.30;99150.00;;;;342980;28;91413;-88
2022/08/18 01:02:19;;;;;;;;;;;19.10;99.90;19.30;99147.00;;;;341848;28;82517;-87
2022/08/18 01:02:34;;;;;;;;;;;19.20;99.90;19.30;99153.00;;;;341443;28;91698;-88
2022/08/18 01:02:48;;;;;;;;;;;19.20;99.90;19.30;99150.00;;;;344770;28;83357;-88
2022/08/18 01:03:02;;;;;;;;;;;19.10;99.90;19.40;99148.00;;;;344145;28;92556;-87
2022/08/18 01:03:15;;;;;;;;;;;19.20;99.90;19.40;99149.00;;;;341962;28;82497;-87
2022/08/18 01:03:38;;;;;;;;;;;19.20;99.90;19.30;99153.00;;;;341673;28;88089;-88
2022/08/18 01:03:53;;;;;;;;;;;19.20;99.90;19.30;99149.00;;;;343394;28;83579;-87
2022/08/18 01:04:14;;;;;;;;;;;19.10;99.90;19.20;99149.00;;;;341616;28;88685;-87
2022/08/18 01:04:31;;;;;;;;;;;19.20;99.90;19.20;99149.00;;;;343334;28;83528;-88
2022/08/18 01:04:51;;;;;;;;;;;19.20;99.90;19.20;99145.00;;;;342801;28;91318;-87
2022/08/18 01:05:10;;;;;;;;;;;19.20;99.90;19.20;99150.00;;;;340677;28;83269;-88
2022/08/18 01:05:36;;;;;;;;;;;19.10;99.90;19.10;99155.00;;;;341484;28;91206;-88
2022/08/18 01:06:17;;;;;;;;;;;19.10;99.90;19.10;99153.00;;;;341911;28;83314;-88
2022/08/18 01:06:36;;;;;;;;;;;19.10;99.90;19.10;99147.00;;;;340787;28;91141;-87
2022/08/18 01:06:57;;;;;;;;;;;19.10;99.90;19.10;99154.00;;;;343459;28;82329;-88
2022/08/18 01:07:14;;;;;;;;;;;19.10;99.90;19.10;99157.00;;;;342795;28;90945;-88
2022/08/18 01:07:31;;;;;;;;;;;19.10;99.90;19.00;99148.00;;;;342098;28;83856;-87
2022/08/18 01:07:44;;;;;;;;;;;19.10;99.90;19.00;99149.00;;;;342850;28;89465;-87
2022/08/18 01:07:56;;;;;;;;;;;19.10;99.90;19.00;99146.00;;;;344753;28;83427;-87
2022/08/18 01:08:13;;;;;;;;;;;19.10;99.90;19.00;99153.00;;;;342744;28;92314;-87
2022/08/18 01:08:25;;;;;;;;;;;19.10;99.90;19.00;99150.00;;;;341898;28;83374;-88
2022/08/18 01:08:40;;;;;;;;;;;19.10;99.90;19.00;99155.00;;;;342880;28;89120;-88
2022/08/18 01:08:53;;;;;;;;;;;19.10;99.90;19.00;99157.00;;;;347492;28;83463;-88
2022/08/18 01:09:05;;;;;;;;;;;19.10;99.90;19.00;99152.00;;;;344177;28;92854;-87
2022/08/18 01:09:18;;;;;;;;;;;19.10;99.90;19.00;99146.00;;;;347414;28;83523;-88
2022/08/18 01:09:30;;;;;;;;;;;19.10;99.90;19.00;99158.00;;;;347133;28;90095;-88
2022/08/18 01:09:41;;;;;;;;;;;19.10;99.90;19.00;99158.00;;;;346024;28;83347;-87
2022/08/18 01:09:53;;;;;;;;;;;19.10;99.90;19.00;99155.00;;;;347089;28;92025;-87
2022/08/18 01:10:06;;;;;;;;;;;19.00;99.90;19.00;99155.00;;;;347624;28;83251;-87
2022/08/18 01:10:20;;;;;;;;;;;19.10;99.90;19.00;99152.00;;;;345692;28;88897;-87
2022/08/18 01:10:32;;;;;;;;;;;19.10;99.90;19.00;99154.00;;;;344415;28;83478;-87
2022/08/18 01:10:44;;;;;;;;;;;19.10;99.90;19.10;99159.00;;;;341498;28;91308;-88
2022/08/18 01:10:56;;;;;;;;;;;19.00;99.90;19.00;99160.00;;;;340762;28;83240;-88
2022/08/18 01:11:09;;;;;;;;;;;19.00;99.90;19.10;99159.00;;;;342767;28;92770;-88
2022/08/18 01:11:21;;;;;;;;;;;19.00;99.90;19.00;99154.00;;;;343361;28;82428;-87
2022/08/18 01:11:35;;;;;;;;;;;19.00;99.90;19.00;99160.00;;;;345660;28;90741;-88
2022/08/18 01:11:47;;;;;;;;;;;19.00;99.90;19.00;99154.00;;;;343173;28;82666;-86
2022/08/18 01:11:59;;;;;;;;;;;19.00;99.90;19.00;99158.00;;;;344342;28;91745;-88
2022/08/18 01:12:22;;;;;;;;;;;19.00;99.90;19.10;99161.00;;;;344729;28;82509;-87
2022/08/18 01:12:56;;;;;;;;;;;19.00;99.90;19.20;99164.00;;;;340123;28;91001;-87